createdAt,value
2018-07-08T00:01:34.757Z,144.17
2018-07-08T00:04:03.319Z,105.57
2018-07-08T00:06:31.953Z,173.83
2018-07-08T00:09:00.575Z,173.90
2018-07-08T00:11:29.163Z,223.80
2018-07-08T00:13:57.723Z,268.93
2018-07-08T00:16:26.360Z,270.30
2018-07-08T00:18:54.897Z,244.20
2018-07-08T00:21:23.489Z,302.50
2018-07-08T00:23:52.116Z,256.00
2018-07-08T00:26:20.719Z,253.47
2018-07-08T00:28:49.281Z,256.40
2018-07-08T00:31:17.483Z,250.73
2018-07-08T00:33:46.091Z,258.33
2018-07-08T00:36:14.666Z,273.27
2018-07-08T00:38:43.291Z,278.73
2018-07-08T00:41:11.872Z,263.57
2018-07-08T00:43:40.446Z,302.80
2018-07-08T00:46:09.125Z,329.83
2018-07-08T00:48:37.673Z,317.87
2018-07-08T00:51:06.618Z,295.23
2018-07-08T00:53:35.155Z,310.33
2018-07-08T00:56:03.793Z,329.30
2018-07-08T00:58:32.407Z,338.87
2018-07-08T01:01:01.003Z,339.67
2018-07-08T01:03:29.620Z,357.53
2018-07-08T01:05:58.227Z,340.87
2018-07-08T01:08:26.824Z,353.60
2018-07-08T01:10:55.417Z,325.10
2018-07-08T01:13:23.662Z,341.23
2018-07-08T01:15:52.216Z,339.17
2018-07-08T01:18:20.801Z,297.10
2018-07-08T01:20:49.404Z,283.60
2018-07-08T01:23:17.983Z,293.23
2018-07-08T01:25:57.868Z,307.53
2018-07-08T01:28:26.514Z,301.67
2018-07-08T01:30:55.075Z,316.63
2018-07-08T01:33:23.696Z,308.30
2018-07-08T01:35:52.247Z,326.93
2018-07-08T01:38:20.885Z,328.43
2018-07-08T01:40:49.481Z,324.27
2018-07-08T01:43:18.068Z,316.23
2018-07-08T01:45:46.664Z,320.43
2018-07-08T01:48:15.228Z,311.70
2018-07-08T01:50:43.919Z,309.00
2018-07-08T01:53:12.588Z,230.13
2018-07-08T01:55:41.221Z,212.67
2018-07-08T01:58:09.750Z,186.43
2018-07-08T02:00:38.352Z,190.70
2018-07-08T02:03:11.699Z,182.80
2018-07-08T02:05:40.644Z,214.00
2018-07-08T02:08:09.235Z,210.97
2018-07-08T02:10:38.335Z,193.10
2018-07-08T02:13:07.039Z,201.87
2018-07-08T02:15:35.325Z,178.27
2018-07-08T02:18:03.919Z,176.43
2018-07-08T02:20:32.561Z,187.00
2018-07-08T02:23:01.517Z,171.20
2018-07-08T02:25:30.236Z,170.30
2018-07-08T02:27:58.892Z,205.83
2018-07-08T02:30:27.476Z,208.80
2018-07-08T02:32:56.023Z,211.77
2018-07-08T02:35:24.892Z,200.97
2018-07-08T02:37:54.137Z,235.40
2018-07-08T02:40:22.678Z,267.77
2018-07-08T02:42:52.552Z,274.60
2018-07-08T02:45:21.132Z,280.17
2018-07-08T02:47:49.804Z,292.77
2018-07-08T02:50:18.364Z,244.30
2018-07-08T02:52:47.124Z,202.13
2018-07-08T02:55:15.755Z,193.43
2018-07-08T02:57:44.344Z,187.53
2018-07-08T03:00:13.146Z,176.70
2018-07-08T03:02:41.748Z,216.80
2018-07-08T03:05:10.290Z,216.40
2018-07-08T03:07:38.850Z,228.20
2018-07-08T03:10:07.429Z,242.97
2018-07-08T03:12:36.013Z,227.57
2018-07-08T03:15:04.649Z,235.47
2018-07-08T03:17:33.263Z,244.77
2018-07-08T03:20:01.868Z,245.63
2018-07-08T03:22:30.084Z,229.87
2018-07-08T03:24:58.666Z,246.13
2018-07-08T03:27:27.188Z,243.43
2018-07-08T03:29:55.749Z,224.80
2018-07-08T03:32:24.311Z,256.17
2018-07-08T03:34:52.908Z,230.70
2018-07-08T03:37:21.480Z,253.47
2018-07-08T03:39:50.037Z,241.23
2018-07-08T03:42:18.608Z,253.17
2018-07-08T03:44:47.198Z,256.63
2018-07-08T03:47:15.716Z,251.67
2018-07-08T03:49:44.267Z,279.97
2018-07-08T03:52:12.831Z,253.97
2018-07-08T03:54:41.433Z,255.07
2018-07-08T03:57:09.957Z,249.37
2018-07-08T03:59:38.556Z,211.50
2018-07-08T04:02:07.143Z,221.10
2018-07-08T04:04:35.908Z,201.07
2018-07-08T04:07:04.519Z,170.73
2018-07-08T04:09:33.042Z,174.70
2018-07-08T04:12:01.603Z,180.40
2018-07-08T04:14:30.157Z,173.53
2018-07-08T04:16:58.713Z,204.70
2018-07-08T04:19:27.280Z,197.57
2018-07-08T04:21:55.843Z,212.03
2018-07-08T04:24:24.367Z,244.60
2018-07-08T04:26:52.582Z,277.63
2018-07-08T04:29:21.160Z,281.83
2018-07-08T04:31:49.884Z,272.83
2018-07-08T04:34:18.419Z,302.87
2018-07-08T04:36:46.981Z,284.63
2018-07-08T04:39:15.576Z,283.40
2018-07-08T04:41:44.176Z,275.60
2018-07-08T04:44:12.694Z,280.67
2018-07-08T04:46:41.259Z,270.53
2018-07-08T04:49:09.872Z,225.83
2018-07-08T04:51:38.388Z,209.67
2018-07-08T04:54:06.951Z,223.23
2018-07-08T04:56:35.535Z,236.17
2018-07-08T04:59:04.093Z,251.23
2018-07-08T05:01:32.659Z,270.53
2018-07-08T05:04:01.266Z,307.37
2018-07-08T05:06:29.862Z,285.77
2018-07-08T05:08:58.091Z,257.30
2018-07-08T05:11:26.667Z,278.53
2018-07-08T05:13:55.228Z,292.97
2018-07-08T05:16:23.772Z,310.97
2018-07-08T05:18:52.365Z,328.63
2018-07-08T05:21:20.996Z,357.10
2018-07-08T05:23:49.608Z,383.93
2018-07-08T05:26:18.195Z,401.83
2018-07-08T05:28:46.748Z,408.27
2018-07-08T05:31:15.361Z,393.50
2018-07-08T05:33:43.941Z,404.03
2018-07-08T05:36:12.457Z,359.67
2018-07-08T05:38:41.157Z,355.30
2018-07-08T05:41:09.728Z,332.50
2018-07-08T05:43:38.336Z,353.67
2018-07-08T05:46:06.617Z,338.50
2018-07-08T05:48:35.158Z,309.73
2018-07-08T05:51:03.784Z,257.10
2018-07-08T05:53:32.023Z,155.33
2018-07-08T05:56:00.596Z,145.63
2018-07-08T05:58:29.198Z,153.60
2018-07-08T06:00:57.794Z,146.37
2018-07-08T06:03:26.318Z,142.37
2018-07-08T06:05:54.881Z,107.40
2018-07-08T06:08:23.424Z,192.93
2018-07-08T06:10:51.970Z,229.07
2018-07-08T06:13:20.562Z,209.53
2018-07-08T06:15:49.136Z,206.50
2018-07-08T06:18:17.728Z,173.67
2018-07-08T06:20:46.273Z,232.27
2018-07-08T06:23:14.851Z,153.53
2018-07-08T06:25:43.418Z,116.57
2018-07-08T06:28:12.038Z,65.40
2018-07-08T06:30:40.551Z,51.33
2018-07-08T06:33:09.132Z,73.30
2018-07-08T06:35:37.676Z,54.17
2018-07-08T06:38:06.260Z,92.73
2018-07-08T06:40:34.814Z,120.23
2018-07-08T06:43:03.410Z,210.23
2018-07-08T06:45:32.024Z,229.17
2018-07-08T06:48:00.591Z,311.93
2018-07-08T06:50:29.400Z,357.30
2018-07-08T06:52:57.930Z,390.10
2018-07-08T06:55:26.657Z,491.50
2018-07-08T06:57:55.242Z,358.47
2018-07-08T07:00:23.479Z,315.00
2018-07-08T07:02:52.077Z,364.43
2018-07-08T07:05:20.603Z,348.27
2018-07-08T07:07:49.204Z,327.90
2018-07-08T07:10:17.773Z,288.63
2018-07-08T07:12:46.066Z,296.20
2018-07-08T07:15:15.208Z,202.37
2018-07-08T07:17:43.800Z,104.17
2018-07-08T07:20:12.416Z,123.53
2018-07-08T07:22:40.981Z,177.67
2018-07-08T07:25:09.849Z,234.77
2018-07-08T07:27:38.548Z,145.67
2018-07-08T07:30:07.198Z,134.03
2018-07-08T07:32:35.845Z,130.73
2018-07-08T07:35:04.493Z,65.90
2018-07-08T07:37:33.033Z,59.77
2018-07-08T07:40:01.609Z,38.80
2018-07-08T07:42:30.202Z,41.97
2018-07-08T07:44:58.723Z,41.47
2018-07-08T07:47:27.273Z,44.73
2018-07-08T07:49:55.812Z,42.87
2018-07-08T07:52:24.427Z,45.63
2018-07-08T07:54:52.967Z,47.73
2018-07-08T07:57:21.549Z,75.60
2018-07-08T07:59:50.145Z,86.00
2018-07-08T08:02:18.657Z,50.13
2018-07-08T08:04:47.219Z,73.90
2018-07-08T08:07:15.845Z,79.73
2018-07-08T08:09:44.355Z,103.17
2018-07-08T08:12:12.876Z,93.77
2018-07-08T08:14:41.464Z,79.93
2018-07-08T08:17:10.055Z,96.10
2018-07-08T08:19:38.310Z,89.77
2018-07-08T08:22:06.990Z,89.33
2018-07-08T08:24:35.517Z,97.50
2018-07-08T08:27:04.107Z,91.17
2018-07-08T08:29:32.616Z,100.90
2018-07-08T08:32:01.351Z,122.33
2018-07-08T08:35:05.653Z,129.17
2018-07-08T08:37:36.532Z,76.20
2018-07-08T08:40:05.956Z,49.03
2018-07-08T08:42:34.549Z,34.27
2018-07-08T08:45:05.490Z,38.47
2018-07-08T08:47:34.350Z,51.67
2018-07-08T08:50:02.932Z,24.93
2018-07-08T08:52:31.551Z,24.97
2018-07-08T08:55:00.113Z,29.70
2018-07-08T08:57:28.648Z,18.93
2018-07-08T08:59:57.472Z,22.57
2018-07-08T09:02:26.076Z,31.70
2018-07-08T09:04:54.616Z,30.10
2018-07-08T09:07:23.309Z,42.87
2018-07-08T09:09:51.885Z,41.43
2018-07-08T09:12:20.460Z,27.93
2018-07-08T09:14:49.020Z,74.87
2018-07-08T09:17:17.652Z,74.83
2018-07-08T09:19:46.210Z,71.80
2018-07-08T09:22:14.805Z,69.47
2018-07-08T09:24:43.415Z,62.50
2018-07-08T09:27:11.949Z,83.73
2018-07-08T09:29:40.521Z,58.97
2018-07-08T09:32:09.127Z,53.03
2018-07-08T09:34:37.688Z,64.33
2018-07-08T09:37:06.226Z,33.53
2018-07-08T09:39:34.807Z,29.13
2018-07-08T09:42:03.048Z,27.90
2018-07-08T09:47:04.347Z,44.60
2018-07-08T09:49:32.929Z,75.20
2018-07-08T09:52:01.280Z,58.93
2018-07-08T09:54:29.879Z,50.93
2018-07-08T09:56:58.423Z,30.27
2018-07-08T09:59:26.992Z,17.53
2018-07-08T10:01:55.547Z,18.33
2018-07-08T10:04:25.044Z,17.73
2018-07-08T10:06:54.447Z,16.20
2018-07-08T10:09:24.126Z,18.23
2018-07-08T10:11:52.710Z,18.30
2018-07-08T10:14:22.459Z,17.57
2018-07-08T10:16:50.989Z,12.27
2018-07-08T10:19:20.342Z,12.83
2018-07-08T10:21:48.899Z,9.80
2018-07-08T10:24:17.480Z,10.73
2018-07-08T10:28:54.689Z,12.57
2018-07-08T10:31:34.533Z,13.00
2018-07-08T10:34:03.124Z,11.20
2018-07-08T10:36:31.719Z,11.50
2018-07-08T10:39:00.277Z,10.40
2018-07-08T10:41:28.842Z,9.80
2018-07-08T10:43:57.421Z,9.00
2018-07-08T10:46:26.015Z,9.80
2018-07-08T10:48:55.347Z,8.83
2018-07-08T10:51:23.949Z,10.43
2018-07-08T10:53:52.544Z,10.03
2018-07-08T10:56:21.055Z,11.17
2018-07-08T10:58:49.761Z,14.00
2018-07-08T11:01:18.278Z,13.47
2018-07-08T11:03:46.848Z,18.40
2018-07-08T11:06:15.423Z,17.63
2018-07-08T11:08:43.939Z,16.70
2018-07-08T11:11:12.550Z,17.43
2018-07-08T11:13:43.072Z,15.87
2018-07-08T11:16:11.649Z,16.50
2018-07-08T11:18:40.403Z,23.07
2018-07-08T11:21:09.480Z,30.33
2018-07-08T11:23:39.993Z,51.27
2018-07-08T11:26:10.135Z,48.77
2018-07-08T11:28:38.402Z,64.97
2018-07-08T11:31:07.404Z,66.40
2018-07-08T11:33:37.616Z,56.93
2018-07-08T11:36:06.887Z,48.77
2018-07-08T11:38:37.881Z,63.87
2018-07-08T11:41:09.886Z,37.40
2018-07-08T11:43:38.460Z,9.90
2018-07-08T11:46:07.096Z,11.23
2018-07-08T11:48:35.700Z,5.83
2018-07-08T11:51:04.324Z,6.67
2018-07-08T11:53:32.839Z,6.50
2018-07-08T11:56:01.551Z,6.90
2018-07-08T11:58:30.133Z,7.53
2018-07-08T12:00:58.683Z,8.57
2018-07-08T12:03:27.278Z,6.83
2018-07-08T12:05:55.909Z,11.43
2018-07-08T12:08:24.444Z,10.40
2018-07-08T12:10:53.006Z,11.97
2018-07-08T12:13:21.611Z,11.27
2018-07-08T12:15:50.168Z,6.43
2018-07-08T12:18:18.710Z,9.43
2018-07-08T12:20:47.303Z,9.90
2018-07-08T12:23:15.852Z,10.07
2018-07-08T12:25:44.613Z,8.87
2018-07-08T12:28:13.192Z,6.97
2018-07-08T12:30:41.752Z,6.37
2018-07-08T12:33:10.336Z,8.87
2018-07-08T12:35:38.972Z,10.17
2018-07-08T12:38:07.528Z,10.00
2018-07-08T12:40:36.081Z,9.50
2018-07-08T12:43:04.719Z,8.63
2018-07-08T12:45:33.371Z,8.53
2018-07-08T12:48:01.921Z,8.33
2018-07-08T12:50:30.511Z,7.90
2018-07-08T12:52:59.073Z,9.60
2018-07-08T12:55:27.578Z,11.73
2018-07-08T12:57:56.103Z,21.63
2018-07-08T13:00:26.367Z,27.27
2018-07-08T13:02:56.628Z,21.77
2018-07-08T13:05:27.002Z,26.37
2018-07-08T13:07:55.632Z,26.43
2018-07-08T13:10:24.176Z,30.67
2018-07-08T13:12:52.793Z,20.97
2018-07-08T13:15:21.336Z,29.87
2018-07-08T13:17:49.891Z,33.50
2018-07-08T13:20:18.497Z,36.00
2018-07-08T13:22:47.085Z,31.70
2018-07-08T13:25:15.685Z,27.50
2018-07-08T13:27:44.370Z,17.40
2018-07-08T13:30:13.073Z,16.23
2018-07-08T13:32:41.716Z,14.60
2018-07-08T13:35:10.249Z,14.70
2018-07-08T13:37:38.802Z,16.63
2018-07-08T13:40:07.359Z,15.27
2018-07-08T13:42:36.021Z,15.77
2018-07-08T13:45:04.681Z,16.37
2018-07-08T13:47:33.269Z,23.67
2018-07-08T13:50:02.098Z,24.80
2018-07-08T13:52:30.625Z,24.87
2018-07-08T13:54:59.212Z,30.20
2018-07-08T13:57:28.705Z,34.97
2018-07-08T13:59:57.312Z,42.53
2018-07-08T14:02:25.915Z,48.57
2018-07-08T14:04:54.448Z,36.23
2018-07-08T14:07:23.026Z,25.97
2018-07-08T14:09:51.577Z,29.97
2018-07-08T14:12:20.172Z,41.77
2018-07-08T14:14:48.502Z,40.60
2018-07-08T14:17:16.997Z,26.93
2018-07-08T14:19:45.635Z,30.13
2018-07-08T14:22:14.163Z,35.40
2018-07-08T14:24:42.985Z,35.00
2018-07-08T14:27:11.539Z,27.07
2018-07-08T14:29:40.252Z,21.57
2018-07-08T14:32:09.164Z,21.87
2018-07-08T14:34:37.760Z,21.03
2018-07-08T14:37:06.020Z,21.47
2018-07-08T14:39:34.563Z,20.80
2018-07-08T14:42:03.183Z,21.50
2018-07-08T14:44:31.809Z,22.53
2018-07-08T14:47:00.315Z,29.17
2018-07-08T14:49:29.060Z,39.23
2018-07-08T14:51:57.597Z,36.30
2018-07-08T14:54:26.220Z,30.77
2018-07-08T14:56:54.808Z,31.13
2018-07-08T14:59:23.391Z,23.63
2018-07-08T15:01:51.669Z,24.07
2018-07-08T15:04:20.216Z,28.23
2018-07-08T15:06:48.800Z,30.90
2018-07-08T15:09:17.335Z,24.67
2018-07-08T15:11:47.599Z,24.83
2018-07-08T15:14:16.137Z,22.30
2018-07-08T15:16:44.704Z,22.30
2018-07-08T15:19:13.304Z,23.10
2018-07-08T15:21:42.104Z,28.87
2018-07-08T15:24:10.620Z,31.57
2018-07-08T15:26:39.233Z,35.17
2018-07-08T15:29:07.900Z,28.30
2018-07-08T15:31:37.821Z,25.33
2018-07-08T15:34:06.432Z,24.13
2018-07-08T15:36:34.976Z,23.63
2018-07-08T15:39:04.290Z,22.80
2018-07-08T15:41:32.911Z,25.50
2018-07-08T15:44:01.516Z,31.93
2018-07-08T15:46:30.118Z,30.60
2018-07-08T15:48:58.707Z,30.60
2018-07-08T15:51:27.432Z,33.93
2018-07-08T15:53:56.997Z,33.67
2018-07-08T15:56:25.579Z,35.73
2018-07-08T15:58:54.297Z,33.97
2018-07-08T16:01:22.857Z,33.97
2018-07-08T16:03:51.464Z,30.50
2018-07-08T16:06:19.991Z,29.97
2018-07-08T16:08:48.549Z,27.37
2018-07-08T16:11:17.137Z,29.60
2018-07-08T16:13:45.379Z,31.53
2018-07-08T16:16:13.912Z,32.67
2018-07-08T16:18:42.245Z,30.47
2018-07-08T16:21:10.736Z,29.73
2018-07-08T16:23:39.315Z,19.50
2018-07-08T16:26:07.979Z,20.57
2018-07-08T16:28:36.556Z,28.80
2018-07-08T16:31:05.178Z,21.97
2018-07-08T16:33:33.736Z,20.27
2018-07-08T16:36:02.450Z,22.17
2018-07-08T16:38:31.012Z,21.60
2018-07-08T16:40:59.544Z,21.03
2018-07-08T16:43:27.841Z,20.77
2018-07-08T16:45:56.386Z,23.00
2018-07-08T16:48:25.590Z,28.83
2018-07-08T16:50:54.184Z,25.07
2018-07-08T16:53:22.762Z,30.23
2018-07-08T16:55:51.376Z,36.37
2018-07-08T16:58:20.021Z,34.20
2018-07-08T17:00:48.628Z,37.23
2018-07-08T17:03:17.237Z,37.50
2018-07-08T17:05:45.783Z,37.60
2018-07-08T17:08:14.404Z,35.37
2018-07-08T17:10:43.016Z,32.97
2018-07-08T17:13:11.580Z,36.00
2018-07-08T17:15:40.372Z,31.97
2018-07-08T17:18:08.908Z,30.10
2018-07-08T17:20:37.492Z,34.70
2018-07-08T17:23:06.084Z,34.07
2018-07-08T17:25:34.793Z,34.90
2018-07-08T17:28:03.032Z,27.77
2018-07-08T17:30:31.660Z,23.27
2018-07-08T17:33:00.300Z,19.23
2018-07-08T17:35:28.927Z,19.50
2018-07-08T17:37:57.540Z,18.33
2018-07-08T17:40:26.071Z,17.10
2018-07-08T17:42:54.652Z,19.43
2018-07-08T17:45:23.197Z,20.93
2018-07-08T17:47:51.871Z,20.60
2018-07-08T17:50:20.452Z,16.70
2018-07-08T17:52:49.063Z,15.63
2018-07-08T17:55:17.580Z,16.70
2018-07-08T17:57:46.310Z,15.47
2018-07-08T18:00:15.106Z,15.30
2018-07-08T18:02:43.672Z,15.30
2018-07-08T18:05:12.231Z,16.17
2018-07-08T18:07:40.813Z,17.53
2018-07-08T18:10:11.813Z,18.60
2018-07-08T18:12:40.453Z,21.20
2018-07-08T18:15:08.948Z,24.07
2018-07-08T18:17:37.546Z,28.00
2018-07-08T18:20:06.166Z,25.80
2018-07-08T18:22:35.269Z,25.33
2018-07-08T18:25:03.772Z,27.67
2018-07-08T18:27:32.011Z,23.97
2018-07-08T18:30:00.633Z,17.23
2018-07-08T18:32:29.175Z,17.87
2018-07-08T18:34:57.718Z,24.23
2018-07-08T18:37:26.257Z,40.07
2018-07-08T18:39:54.762Z,49.33
2018-07-08T18:42:23.332Z,58.57
2018-07-08T18:44:51.873Z,64.67
2018-07-08T18:47:20.469Z,48.87
2018-07-08T18:49:48.980Z,23.50
2018-07-08T18:52:17.485Z,15.63
2018-07-08T18:54:45.706Z,16.30
2018-07-08T18:57:14.320Z,13.03
2018-07-08T18:59:42.839Z,24.33
2018-07-08T19:02:11.369Z,43.73
2018-07-08T19:04:39.910Z,40.90
2018-07-08T19:07:08.549Z,25.37
2018-07-08T19:09:37.344Z,18.40
2018-07-08T19:12:05.899Z,15.73
2018-07-08T19:14:34.489Z,18.33
2018-07-08T19:17:03.070Z,25.43
2018-07-08T19:19:32.118Z,26.33
2018-07-08T19:22:00.368Z,22.57
2018-07-08T19:24:29.008Z,19.27
2018-07-08T19:26:57.652Z,19.43
2018-07-08T19:29:26.216Z,17.93
2018-07-08T19:31:54.813Z,15.67
2018-07-08T19:34:23.389Z,11.93
2018-07-08T19:36:51.926Z,10.40
2018-07-08T19:39:20.453Z,10.10
2018-07-08T19:41:49.040Z,10.77
2018-07-08T19:44:17.692Z,12.13
2018-07-08T19:46:46.220Z,14.87
2018-07-08T19:49:14.800Z,44.60
2018-07-08T19:51:43.365Z,131.70
2018-07-08T19:54:12.006Z,170.83
2018-07-08T19:56:40.936Z,134.87
2018-07-08T19:59:09.505Z,101.50
2018-07-08T20:01:38.017Z,60.13
2018-07-08T20:04:06.560Z,44.50
2018-07-08T20:06:35.097Z,28.37
2018-07-08T20:09:03.792Z,27.93
2018-07-08T20:11:32.368Z,31.57
2018-07-08T20:14:00.908Z,74.33
2018-07-08T20:16:29.472Z,78.87
2018-07-08T20:18:58.182Z,99.40
2018-07-08T20:21:26.998Z,74.20
2018-07-08T20:23:55.441Z,59.27
2018-07-08T20:26:23.993Z,49.17
2018-07-08T20:28:52.544Z,100.03
2018-07-08T20:31:21.091Z,102.30
2018-07-08T20:33:49.671Z,101.13
2018-07-08T20:36:18.259Z,77.93
2018-07-08T20:38:46.795Z,67.77
2018-07-08T20:41:15.304Z,69.23
2018-07-08T20:43:43.941Z,53.23
2018-07-08T20:46:12.490Z,48.50
2018-07-08T20:48:41.221Z,47.33
2018-07-08T20:51:09.791Z,48.23
2018-07-08T20:53:38.324Z,65.57
2018-07-08T20:56:07.011Z,98.07
2018-07-08T20:58:35.569Z,258.10
2018-07-08T21:01:04.117Z,347.73
2018-07-08T21:03:32.715Z,364.40
2018-07-08T21:06:01.241Z,352.27
2018-07-08T21:08:29.849Z,307.07
2018-07-08T21:10:58.405Z,331.53
2018-07-08T21:13:26.676Z,320.30
2018-07-08T21:15:55.281Z,289.90
2018-07-08T21:18:23.836Z,283.30
2018-07-08T21:20:52.414Z,317.33
2018-07-08T21:23:20.930Z,356.03
2018-07-08T21:25:49.556Z,232.50
2018-07-08T21:28:18.231Z,236.07
2018-07-08T21:30:46.983Z,238.77
2018-07-08T21:33:16.714Z,271.10
2018-07-08T21:35:45.608Z,256.20
2018-07-08T21:38:14.200Z,257.47
2018-07-08T21:40:42.781Z,271.00
2018-07-08T21:43:11.272Z,315.50
2018-07-08T21:45:40.596Z,341.97
2018-07-08T21:48:09.196Z,367.57
2018-07-08T21:50:38.201Z,344.77
2018-07-08T21:53:06.771Z,348.03
2018-07-08T21:55:35.872Z,322.27
2018-07-08T21:58:04.490Z,349.77
2018-07-08T22:00:34.421Z,318.50
2018-07-08T22:03:04.826Z,311.13
2018-07-08T22:05:33.660Z,308.67
2018-07-08T22:08:05.208Z,301.30
2018-07-08T22:10:34.990Z,327.87
2018-07-08T22:13:04.189Z,361.70
2018-07-08T22:15:32.717Z,367.63
2018-07-08T22:18:01.229Z,383.57
2018-07-08T22:20:33.190Z,394.70
2018-07-08T22:23:03.776Z,390.77
2018-07-08T22:25:33.240Z,408.97
2018-07-08T22:28:01.760Z,367.67
2018-07-08T22:30:30.322Z,374.73
2018-07-08T22:32:58.889Z,344.27
2018-07-08T22:35:28.976Z,342.53
2018-07-08T22:37:57.229Z,364.00
2018-07-08T22:40:27.481Z,336.47
2018-07-08T22:42:56.675Z,332.60
2018-07-08T22:45:27.196Z,342.17
2018-07-08T22:47:55.755Z,261.90
2018-07-08T22:50:24.295Z,252.40
2018-07-08T22:52:52.921Z,255.80
2018-07-08T22:55:21.432Z,228.50
2018-07-08T22:57:49.959Z,205.90
2018-07-08T23:00:23.800Z,186.53
2018-07-08T23:03:58.758Z,185.70
2018-07-08T23:06:27.316Z,214.10
2018-07-08T23:08:56.201Z,172.97
2018-07-08T23:11:25.439Z,182.10
2018-07-08T23:13:55.080Z,166.30
2018-07-08T23:16:24.265Z,161.70
2018-07-08T23:18:52.970Z,163.77
2018-07-08T23:21:21.553Z,137.73
2018-07-08T23:23:50.168Z,166.97
2018-07-08T23:26:18.689Z,168.70
2018-07-08T23:28:47.212Z,145.77
2018-07-08T23:31:15.760Z,145.30
2018-07-08T23:33:44.353Z,147.00
2018-07-08T23:36:13.259Z,149.03
2018-07-08T23:38:41.770Z,120.43
2018-07-08T23:41:11.465Z,123.37
2018-07-08T23:43:39.994Z,125.07
2018-07-08T23:46:08.568Z,124.50
2018-07-08T23:48:37.136Z,118.67
2018-07-08T23:51:05.732Z,111.17
2018-07-08T23:53:34.301Z,132.23
2018-07-08T23:56:02.902Z,140.93
2018-07-08T23:58:31.444Z,151.13
